This is the latest recevied weather packets stored in our database for station/object EA3EH-1. If no packets are shown the sender has not sent any weather packets the latest 10 day(s).
| Time | Temp. | Humidity | Pressure | Rain* | Wind** | Luminosity | Snow |
|---|---|---|---|---|---|---|---|
| 1777498304 | 15.56° C | 51% | 1012 hPa | 0 mm | - | - | - |
| 1777498004 | 15.56° C | 51% | 1012 hPa | 0 mm | - | - | - |
| 1777497704 | 15.56° C | 52% | 1012 hPa | 0 mm | - | - | - |
| 1777496804 | 15.56° C | 52% | 1012 hPa | 0 mm | - | - | - |
| 1777496205 | 15.56° C | 51% | 1012 hPa | 0 mm | - | - | - |
| 1777495304 | 16.11° C | 50% | 1012 hPa | 0 mm | - | - | - |
| 1777495004 | 16.11° C | 51% | 1011 hPa | 0 mm | - | - | - |
| 1777493806 | 16.67° C | 48% | 1011 hPa | 0 mm | - | - | - |
| 1777493504 | 16.67° C | 47% | 1011 hPa | 0 mm | - | - | - |
| 1777491705 | 17.78° C | 43% | 1011 hPa | 0 mm | - | - | - |
| 1777491404 | 17.78° C | 43% | 1010 hPa | 0 mm | - | - | - |
| 1777490205 | 18.33° C | 37% | 1010 hPa | 0 mm | - | - | - |
| 1777489605 | 19.44° C | 36% | 1010 hPa | 0 mm | - | - | - |
| 1777489304 | 19.44° C | 35% | 1010 hPa | 0 mm | - | - | - |
| 1777489004 | 19.44° C | 34% | 1010 hPa | 0 mm | - | - | - |
| 1777486906 | 20.56° C | 29% | 1010 hPa | 0 mm | - | - | - |
| 1777486004 | 21.11° C | 24% | 1009 hPa | 0 mm | - | - | - |
| 1777485704 | 21.67° C | 23% | 1009 hPa | 0 mm | - | - | - |
| 1777485405 | 22.22° C | 22% | 1009 hPa | 0 mm | - | - | - |
| 1777484805 | 22.22° C | 22% | 1009 hPa | 0 mm | - | - | - |
| 1777484204 | 22.22° C | 22% | 1009 hPa | 0 mm | - | - | - |
| 1777483905 | 22.22° C | 21% | 1009 hPa | 0 mm | - | - | - |
| 1777483605 | 22.22° C | 18% | 1009 hPa | 0 mm | - | - | - |
| 1777483005 | 23.33° C | 15% | 1009 hPa | 0 mm | - | - | - |
| 1777482705 | 23.89° C | 13% | 1009 hPa | 0 mm | - | - | - |
* Rain latest hour (hover to see other rain measurements)
** Current wind speed in m/s (hover to see current wind gust speed)